createdAt,value
2022-12-06T00:02:49.015Z,80.28
2022-12-06T00:07:48.023Z,80.30
2022-12-06T00:12:47.208Z,80.37
2022-12-06T00:17:46.076Z,80.45
2022-12-06T00:22:49.746Z,80.62
2022-12-06T00:27:48.659Z,80.81
2022-12-06T00:32:50.983Z,81.01
2022-12-06T00:37:50.156Z,81.18
2022-12-06T00:42:49.272Z,81.34
2022-12-06T00:47:48.649Z,81.49
2022-12-06T00:52:47.971Z,81.65
2022-12-06T00:57:46.906Z,81.85
2022-12-06T01:02:46.079Z,82.03
2022-12-06T01:07:45.264Z,82.22
2022-12-06T01:12:44.684Z,82.39
2022-12-06T01:17:43.994Z,82.54
2022-12-06T01:22:43.185Z,82.67
2022-12-06T01:27:41.823Z,82.76
2022-12-06T01:32:40.550Z,82.86
2022-12-06T01:37:39.894Z,82.97
2022-12-06T01:42:38.986Z,83.00
2022-12-06T01:47:44.232Z,83.10
2022-12-06T01:52:49.435Z,83.15
2022-12-06T01:57:49.684Z,83.19
2022-12-06T02:02:48.482Z,83.18
2022-12-06T02:07:48.064Z,83.28
2022-12-06T02:12:48.665Z,83.38
2022-12-06T02:17:57.504Z,83.41
2022-12-06T02:23:48.241Z,83.47
2022-12-06T02:29:35.783Z,83.53
2022-12-06T02:34:45.298Z,83.54
2022-12-06T02:39:52.553Z,83.58
2022-12-06T02:44:57.239Z,83.61
2022-12-06T02:49:58.596Z,83.68
2022-12-06T02:55:02.654Z,83.67
2022-12-06T03:00:01.821Z,83.70
2022-12-06T03:05:15.701Z,83.74
2022-12-06T03:10:42.405Z,83.81
2022-12-06T03:15:56.204Z,83.78
2022-12-06T03:21:01.313Z,83.80
2022-12-06T03:26:03.974Z,83.85
2022-12-06T03:31:10.921Z,83.86
2022-12-06T03:36:13.705Z,83.86
2022-12-06T03:41:16.336Z,83.86
2022-12-06T03:46:20.633Z,83.89
2022-12-06T03:51:26.611Z,83.86
2022-12-06T03:56:26.624Z,83.86
2022-12-06T04:01:25.277Z,83.96
2022-12-06T04:06:25.017Z,83.99
2022-12-06T04:11:23.899Z,84.00
2022-12-06T04:16:39.967Z,84.04
2022-12-06T04:21:55.952Z,84.07
2022-12-06T04:27:15.685Z,84.02
2022-12-06T04:32:32.288Z,84.04
2022-12-06T04:37:48.295Z,84.08
2022-12-06T04:43:04.987Z,84.10
2022-12-06T04:48:04.872Z,84.19
2022-12-06T04:53:04.003Z,84.21
2022-12-06T04:58:02.947Z,84.22
2022-12-06T05:03:01.658Z,84.25
2022-12-06T05:08:00.723Z,84.36
2022-12-06T05:13:00.792Z,84.35
2022-12-06T05:18:01.260Z,84.40
2022-12-06T05:23:01.609Z,84.47
2022-12-06T05:28:00.757Z,84.50
2022-12-06T05:33:05.805Z,84.50
2022-12-06T05:38:04.654Z,84.50
2022-12-06T05:43:04.293Z,84.51
2022-12-06T05:48:03.359Z,84.58
2022-12-06T05:53:04.203Z,84.58
2022-12-06T05:58:04.048Z,84.60
2022-12-06T06:03:04.481Z,84.60
2022-12-06T06:08:04.293Z,84.64
2022-12-06T06:13:04.440Z,84.64
2022-12-06T06:18:04.495Z,84.65
2022-12-06T06:23:03.604Z,84.69
2022-12-06T06:28:03.031Z,84.73
2022-12-06T06:33:01.960Z,84.79
2022-12-06T06:38:01.369Z,84.82
2022-12-06T06:43:18.459Z,84.88
2022-12-06T06:48:17.951Z,84.87
2022-12-06T06:53:17.343Z,84.82
2022-12-06T06:58:16.462Z,84.88
2022-12-06T07:03:20.448Z,84.84
2022-12-06T07:08:19.548Z,84.79
2022-12-06T07:13:20.934Z,84.88
2022-12-06T07:18:20.759Z,84.90
2022-12-06T07:23:20.139Z,84.90
2022-12-06T07:28:19.035Z,84.89
2022-12-06T07:33:18.232Z,84.91
2022-12-06T07:38:16.697Z,84.94
2022-12-06T07:43:33.272Z,84.90
2022-12-06T07:48:32.265Z,84.93
2022-12-06T07:53:31.926Z,84.93
2022-12-06T07:58:30.885Z,84.94
2022-12-06T08:03:30.199Z,85.00
2022-12-06T08:08:29.511Z,84.99
2022-12-06T08:13:28.192Z,85.01
2022-12-06T08:18:27.051Z,84.96
2022-12-06T08:23:32.219Z,84.96
2022-12-06T08:28:35.521Z,84.93
2022-12-06T08:33:35.586Z,84.94
2022-12-06T08:38:34.908Z,84.93
2022-12-06T08:43:33.483Z,84.92
2022-12-06T08:48:35.283Z,85.00
2022-12-06T08:53:36.240Z,84.97
2022-12-06T08:58:35.659Z,84.96
2022-12-06T09:03:35.044Z,84.95
2022-12-06T09:08:33.796Z,84.93
2022-12-06T09:13:33.064Z,84.98
2022-12-06T09:18:32.769Z,84.92
2022-12-06T09:23:32.279Z,85.00
2022-12-06T09:28:31.987Z,85.00
2022-12-06T09:33:31.638Z,84.99
2022-12-06T09:38:35.784Z,84.93
2022-12-06T09:43:55.652Z,85.00
2022-12-06T09:49:15.597Z,85.05
2022-12-06T09:54:39.156Z,85.10
2022-12-06T09:59:54.937Z,85.06
2022-12-06T10:05:24.091Z,84.97
2022-12-06T10:10:39.718Z,84.90
2022-12-06T10:15:54.222Z,84.77
2022-12-06T10:21:04.341Z,84.69
2022-12-06T10:26:17.294Z,84.57
2022-12-06T10:31:28.746Z,84.52
2022-12-06T10:36:45.700Z,84.50
2022-12-06T10:41:54.321Z,84.50
2022-12-06T10:47:05.164Z,84.51
2022-12-06T10:52:18.350Z,84.43
2022-12-06T10:57:26.843Z,84.49
2022-12-06T11:02:34.331Z,84.52
2022-12-06T11:07:42.925Z,84.52
2022-12-06T11:12:44.268Z,84.61
2022-12-06T11:17:50.692Z,84.69
2022-12-06T11:23:06.255Z,84.63
2022-12-06T11:28:22.137Z,84.50
2022-12-06T11:33:31.130Z,84.45
2022-12-06T11:38:30.919Z,84.54
2022-12-06T11:43:36.181Z,84.62
2022-12-06T11:48:38.701Z,84.72
2022-12-06T11:53:49.220Z,84.79
2022-12-06T11:58:56.488Z,84.90
2022-12-06T12:03:55.106Z,84.99
2022-12-06T12:09:06.453Z,84.99
2022-12-06T12:14:19.572Z,84.97
2022-12-06T12:19:37.579Z,85.09
2022-12-06T12:30:39.389Z,85.05
2022-12-06T12:35:42.628Z,85.00
2022-12-06T12:40:46.115Z,85.00
2022-12-06T12:46:06.532Z,85.02
2022-12-06T12:51:21.316Z,84.98
2022-12-06T12:56:24.445Z,84.98
2022-12-06T13:01:40.571Z,85.00
2022-12-06T13:06:50.567Z,85.00
2022-12-06T13:11:58.413Z,85.00
2022-12-06T13:17:07.104Z,85.00
2022-12-06T13:22:16.384Z,85.01
2022-12-06T13:27:25.556Z,85.07
2022-12-06T13:32:36.853Z,85.16
2022-12-06T13:37:45.129Z,85.18
2022-12-06T13:42:49.779Z,85.21
2022-12-06T13:47:56.033Z,85.21
2022-12-06T13:53:08.908Z,85.19
2022-12-06T13:58:42.118Z,85.19
2022-12-06T14:03:57.701Z,85.19
2022-12-06T14:09:01.154Z,85.21
2022-12-06T14:14:15.593Z,85.25
2022-12-06T14:19:33.794Z,85.26
2022-12-06T14:24:42.017Z,85.19
2022-12-06T14:29:42.015Z,85.14
2022-12-06T14:34:42.749Z,85.20
2022-12-06T14:39:41.954Z,85.30
2022-12-06T14:44:42.337Z,85.21
2022-12-06T14:49:59.420Z,85.21
2022-12-06T14:55:19.966Z,85.29
2022-12-06T15:00:27.856Z,85.30
2022-12-06T15:05:41.244Z,85.38
2022-12-06T15:10:40.565Z,85.47
2022-12-06T15:15:46.732Z,85.42
2022-12-06T15:20:45.956Z,85.32
2022-12-06T15:25:44.870Z,85.29
2022-12-06T15:30:43.788Z,85.30
2022-12-06T15:35:43.228Z,85.35
2022-12-06T15:40:45.444Z,85.44
2022-12-06T15:45:45.329Z,85.43
2022-12-06T15:50:45.830Z,85.41
2022-12-06T15:55:45.330Z,85.39
2022-12-06T16:00:45.858Z,85.45
2022-12-06T16:05:45.321Z,85.46
2022-12-06T16:11:12.819Z,85.49
2022-12-06T16:16:04.559Z,85.50
2022-12-06T16:21:04.411Z,85.39
2022-12-06T16:26:04.134Z,85.38
2022-12-06T16:31:03.095Z,85.46
2022-12-06T16:36:12.388Z,85.50
2022-12-06T16:41:21.287Z,85.36
2022-12-06T16:46:28.889Z,85.30
2022-12-06T16:51:30.055Z,85.24
2022-12-06T16:56:31.113Z,85.12
2022-12-06T17:01:35.851Z,85.10
2022-12-06T17:06:36.901Z,85.10
2022-12-06T17:11:56.140Z,85.02
2022-12-06T17:16:57.195Z,84.91
2022-12-06T17:21:57.676Z,84.90
2022-12-06T17:26:59.069Z,84.90
2022-12-06T17:31:59.529Z,84.94
2022-12-06T17:37:00.464Z,84.99
2022-12-06T17:42:16.779Z,85.00
2022-12-06T17:47:16.206Z,85.01
2022-12-06T17:52:17.032Z,85.08
2022-12-06T17:57:19.880Z,85.24
2022-12-06T18:02:26.103Z,85.30
2022-12-06T18:07:25.734Z,85.36
2022-12-06T18:12:26.539Z,85.40
2022-12-06T18:17:27.382Z,85.48
2022-12-06T18:22:26.667Z,85.50
2022-12-06T18:27:26.121Z,85.50
2022-12-06T18:32:24.818Z,85.43
2022-12-06T18:37:24.224Z,85.39
2022-12-06T18:42:23.203Z,85.34
2022-12-06T18:47:22.696Z,85.29
2022-12-06T18:52:21.893Z,85.16
2022-12-06T18:57:21.051Z,84.96
2022-12-06T19:02:20.695Z,84.86
2022-12-06T19:07:23.660Z,85.06
2022-12-06T19:12:24.108Z,85.27
2022-12-06T19:17:23.038Z,85.39
2022-12-06T19:22:22.418Z,85.48
2022-12-06T19:27:21.012Z,85.51
2022-12-06T19:32:21.003Z,85.60
2022-12-06T19:37:19.921Z,85.57
2022-12-06T19:42:36.460Z,85.56
2022-12-06T19:47:36.175Z,85.57
2022-12-06T19:52:35.764Z,85.57
2022-12-06T19:57:35.301Z,85.61
2022-12-06T20:02:35.151Z,85.60
2022-12-06T20:07:35.072Z,85.53
2022-12-06T20:12:34.864Z,85.54
2022-12-06T20:17:34.164Z,85.62
2022-12-06T20:22:33.790Z,85.57
2022-12-06T20:27:50.748Z,85.43
2022-12-06T20:32:50.691Z,85.18
2022-12-06T20:37:53.202Z,85.27
2022-12-06T20:42:52.518Z,85.43
2022-12-06T20:47:54.802Z,85.46
2022-12-06T20:52:53.957Z,85.54
2022-12-06T20:57:53.294Z,85.63
2022-12-06T21:02:52.587Z,85.76
2022-12-06T21:07:52.485Z,85.74
2022-12-06T21:12:51.117Z,85.53
2022-12-06T21:17:49.740Z,85.51
2022-12-06T21:22:50.691Z,85.55
2022-12-06T21:27:51.327Z,85.69
2022-12-06T21:32:50.543Z,85.64
2022-12-06T21:37:49.547Z,85.57
2022-12-06T21:42:49.079Z,85.41
2022-12-06T21:47:48.221Z,85.41
2022-12-06T21:52:47.384Z,85.56
2022-12-06T21:57:46.754Z,85.68
2022-12-06T22:02:51.202Z,85.63
2022-12-06T22:07:50.244Z,85.61
2022-12-06T22:12:51.448Z,85.56
2022-12-06T22:17:50.651Z,85.47
2022-12-06T22:22:49.749Z,85.50
2022-12-06T22:27:48.627Z,85.57
2022-12-06T22:32:47.730Z,85.81
2022-12-06T22:37:47.219Z,85.92
2022-12-06T22:42:46.074Z,85.94
2022-12-06T22:47:46.570Z,86.09
2022-12-06T22:52:45.817Z,86.17
2022-12-06T22:57:44.910Z,86.29
2022-12-06T23:02:43.493Z,86.32
2022-12-06T23:07:42.557Z,86.43
2022-12-06T23:12:42.960Z,86.50
2022-12-06T23:17:42.160Z,86.57
2022-12-06T23:22:41.558Z,86.53
2022-12-06T23:27:40.599Z,86.54
2022-12-06T23:32:40.062Z,86.65
2022-12-06T23:37:39.710Z,86.65
2022-12-06T23:42:39.316Z,86.79
2022-12-06T23:47:38.522Z,86.90
2022-12-06T23:52:37.836Z,86.92
2022-12-06T23:57:36.898Z,87.05
